Time;durP1;ratioP1;P1;durP2;ratioP2;P2;SDS_P1;SDS_P2;PMS_P1;PMS_P2;Temp;Humidity;BMP_temperature;BMP_pressure;BME280_temperature;BME280_humidity;BME280_pressure;Samples;Min_cycle;Max_cycle;Signal;HPM_P1;HPM_P2
2022/03/23 00:00:26;;;;;;;32.38;25.17;;;11.50;47.00;;;;;;5054718;28;20228;-66
2022/03/23 00:02:53;;;;;;;30.45;24.92;;;11.50;46.50;;;;;;5057318;28;20670;-66
2022/03/23 00:05:25;;;;;;;33.45;23.98;;;11.50;46.60;;;;;;5062420;28;20378;-66
2022/03/23 00:07:52;;;;;;;33.95;23.90;;;11.50;46.70;;;;;;5041554;28;20902;-66
2022/03/23 00:10:18;;;;;;;30.73;25.42;;;11.50;46.90;;;;;;5054874;28;20225;-66
2022/03/23 00:12:45;;;;;;;29.00;24.00;;;11.50;46.90;;;;;;5054600;28;20221;-66
2022/03/23 00:15:13;;;;;;;30.70;22.38;;;11.50;47.00;;;;;;5055253;28;20227;-66
2022/03/23 00:17:41;;;;;;;31.90;22.23;;;11.40;47.00;;;;;;5034380;28;20229;-66
2022/03/23 00:20:09;;;;;;;31.08;24.17;;;11.40;46.90;;;;;;5048891;28;20251;-66
2022/03/23 00:22:37;;;;;;;32.38;25.35;;;11.40;47.00;;;;;;5054254;28;20232;-66
2022/03/23 00:25:04;;;;;;;30.98;22.75;;;11.40;47.10;;;;;;5054804;28;20225;-66
2022/03/23 00:27:31;;;;;;;37.75;26.65;;;11.30;46.70;;;;;;5054236;28;20391;-66
2022/03/23 00:29:58;;;;;;;31.33;23.67;;;11.40;46.40;;;;;;5054823;28;20693;-66
2022/03/23 00:32:25;;;;;;;38.55;24.33;;;11.30;46.20;;;;;;5054738;28;20229;-66
2022/03/23 00:34:52;;;;;;;28.13;23.52;;;11.30;46.30;;;;;;5054120;28;20236;-65
2022/03/23 00:37:19;;;;;;;29.35;23.25;;;11.30;46.60;;;;;;5054579;28;20224;-66
2022/03/23 00:39:48;;;;;;;38.15;26.70;;;11.20;46.80;;;;;;5054039;28;20286;-66
2022/03/23 00:42:14;;;;;;;31.17;22.88;;;11.20;47.20;;;;;;5054506;28;20224;-66
2022/03/23 00:44:41;;;;;;;27.40;20.63;;;11.20;47.50;;;;;;5037970;28;20221;-66
2022/03/23 00:47:09;;;;;;;26.75;22.90;;;11.20;47.20;;;;;;5054698;28;20536;-66
2022/03/23 00:49:36;;;;;;;22.38;19.98;;;11.20;46.80;;;;;;5053399;28;20550;-65
2022/03/23 00:52:05;;;;;;;27.23;22.25;;;11.20;46.60;;;;;;5054222;28;20225;-65
2022/03/23 00:54:34;;;;;;;26.60;20.63;;;11.10;46.70;;;;;;5053836;28;20232;-65
2022/03/23 00:57:02;;;;;;;30.15;22.55;;;11.10;46.80;;;;;;5054471;28;20220;-65
2022/03/23 00:59:29;;;;;;;26.70;21.73;;;11.10;47.00;;;;;;5054157;28;20611;-65
2022/03/23 01:01:56;;;;;;;27.40;23.23;;;11.00;46.90;;;;;;5053605;28;20231;-65
2022/03/23 01:04:23;;;;;;;27.20;21.23;;;11.10;46.80;;;;;;5054157;28;20674;-65
2022/03/23 01:06:52;;;;;;;26.70;21.65;;;11.00;46.50;;;;;;5053585;28;20228;-66
2022/03/23 01:09:23;;;;;;;23.05;20.63;;;11.00;46.50;;;;;;5040483;28;20627;-66
2022/03/23 01:11:50;;;;;;;31.17;22.67;;;11.00;46.90;;;;;;5053757;28;20239;-66
2022/03/23 01:14:20;;;;;;;25.33;20.80;;;10.90;47.20;;;;;;5054012;28;20227;-66
2022/03/23 01:16:47;;;;;;;28.15;22.25;;;10.90;47.30;;;;;;5047641;28;20244;-66
2022/03/23 01:19:14;;;;;;;22.63;20.05;;;10.80;47.20;;;;;;5046570;28;20216;-66
2022/03/23 01:21:41;;;;;;;26.45;20.85;;;10.80;47.20;;;;;;5053120;28;20741;-65
2022/03/23 01:24:08;;;;;;;22.65;20.20;;;10.80;47.30;;;;;;5053708;28;20228;-66
2022/03/23 01:26:35;;;;;;;26.80;22.65;;;10.80;47.30;;;;;;5053035;28;20666;-66
2022/03/23 01:29:03;;;;;;;30.60;21.20;;;10.80;47.30;;;;;;5053658;28;20221;-66
2022/03/23 01:31:31;;;;;;;26.38;22.25;;;10.80;47.30;;;;;;5053417;28;20229;-66
2022/03/23 01:33:59;;;;;;;37.47;21.67;;;10.70;47.60;;;;;;5053200;28;20225;-66
2022/03/23 01:36:26;;;;;;;26.90;20.33;;;10.70;47.60;;;;;;5053402;28;20275;-66
2022/03/23 01:38:56;;;;;;;21.83;18.92;;;10.70;47.30;;;;;;5053127;28;20227;-66
2022/03/23 01:41:23;;;;;;;23.63;19.60;;;10.70;47.30;;;;;;5053255;28;20225;-66
2022/03/23 01:43:51;;;;;;;25.67;20.00;;;10.70;47.40;;;;;;5052857;28;20308;-66
2022/03/23 01:46:18;;;;;;;25.35;20.52;;;10.60;47.50;;;;;;5053346;28;20231;-66
2022/03/23 01:48:47;;;;;;;29.60;19.70;;;10.60;47.60;;;;;;5052934;28;20292;-66
2022/03/23 01:51:15;;;;;;;27.08;21.60;;;10.50;47.50;;;;;;5053080;28;20235;-66
2022/03/23 01:53:46;;;;;;;21.58;18.70;;;10.50;47.70;;;;;;5052635;28;20566;-66
2022/03/23 01:56:14;;;;;;;24.05;19.75;;;10.50;47.70;;;;;;5053374;28;20217;-65
2022/03/23 01:58:41;;;;;;;20.70;18.50;;;10.50;47.80;;;;;;5052598;28;20252;-65
2022/03/23 02:01:08;;;;;;;22.67;19.25;;;10.50;47.80;;;;;;5052061;28;20236;-66
2022/03/23 02:03:35;;;;;;;24.35;19.23;;;10.50;47.90;;;;;;5053129;28;20248;-66
2022/03/23 02:06:03;;;;;;;24.77;20.20;;;10.50;47.90;;;;;;5052575;28;20225;-66
2022/03/23 02:08:30;;;;;;;25.98;19.85;;;10.50;48.00;;;;;;5052813;28;20221;-66
2022/03/23 02:10:57;;;;;;;25.20;20.38;;;10.50;48.10;;;;;;5051499;28;20236;-65
2022/03/23 02:13:24;;;;;;;23.13;19.02;;;10.40;48.00;;;;;;5052429;28;20252;-68
2022/03/23 02:15:51;;;;;;;24.50;20.85;;;10.40;48.20;;;;;;5052169;28;20904;-66
2022/03/23 02:18:20;;;;;;;22.25;18.42;;;10.40;48.30;;;;;;5046859;28;20285;-66
2022/03/23 02:20:47;;;;;;;20.55;18.40;;;10.40;48.30;;;;;;5050972;28;20220;-65
2022/03/23 02:23:19;;;;;;;25.23;20.20;;;10.30;48.40;;;;;;5052657;28;20306;-66
2022/03/23 02:25:50;;;;;;;23.25;19.92;;;10.30;48.60;;;;;;5039699;28;20213;-66
2022/03/23 02:28:18;;;;;;;22.83;20.33;;;10.30;48.60;;;;;;5052017;28;20232;-66
2022/03/23 02:30:45;;;;;;;24.88;20.13;;;10.30;48.50;;;;;;5052096;28;20569;-66
2022/03/23 02:33:12;;;;;;;27.00;21.73;;;10.30;48.50;;;;;;5052401;28;20616;-65
2022/03/23 02:35:39;;;;;;;24.83;19.90;;;10.30;48.60;;;;;;5052138;28;20320;-66
2022/03/23 02:38:06;;;;;;;22.38;18.58;;;10.20;48.60;;;;;;5052404;28;20746;-67
2022/03/23 02:40:35;;;;;;;21.80;18.88;;;10.20;48.60;;;;;;5045962;28;20225;-66
2022/03/23 02:43:02;;;;;;;20.58;17.85;;;10.20;48.60;;;;;;5045784;28;20229;-66
2022/03/23 02:45:29;;;;;;;26.80;18.92;;;10.20;48.60;;;;;;5052644;28;20259;-66
2022/03/23 02:47:56;;;;;;;33.10;21.40;;;10.20;48.60;;;;;;5051705;28;20244;-65
2022/03/23 02:50:24;;;;;;;26.75;21.67;;;10.10;48.70;;;;;;5052397;28;20262;-65
2022/03/23 03:04:12;;;;;;;26.67;20.80;;;9.90;49.80;;;;;;5051696;28;20721;-66
2022/03/23 03:06:39;;;;;;;24.02;21.10;;;9.90;50.10;;;;;;5052419;28;20686;-66
2022/03/23 03:09:12;;;;;;;25.30;20.20;;;9.80;50.00;;;;;;5052065;28;20560;-66
2022/03/23 03:11:40;;;;;;;24.00;19.92;;;9.80;50.00;;;;;;5052107;28;20229;-65
2022/03/23 03:14:07;;;;;;;22.27;18.80;;;9.80;50.00;;;;;;5055262;28;20228;-66
2022/03/23 03:16:34;;;;;;;27.75;22.40;;;9.80;50.20;;;;;;5052323;28;20281;-66
2022/03/23 03:19:01;;;;;;;27.35;20.17;;;9.70;50.20;;;;;;5040485;28;20228;-66
2022/03/23 03:21:28;;;;;;;25.23;20.05;;;9.70;50.30;;;;;;5055652;28;20677;-66
2022/03/23 03:23:54;;;;;;;25.02;20.45;;;9.70;50.30;;;;;;5055867;28;20240;-66
2022/03/23 03:26:21;;;;;;;23.33;19.48;;;9.70;50.30;;;;;;5055547;28;20738;-66
2022/03/23 03:28:50;;;;;;;29.33;20.45;;;9.60;50.30;;;;;;5056014;28;20605;-66
2022/03/23 03:31:17;;;;;;;27.10;21.70;;;9.60;50.30;;;;;;5054757;28;20312;-65
2022/03/23 03:33:45;;;;;;;30.23;21.52;;;9.60;50.30;;;;;;5054921;28;20235;-66
2022/03/23 03:36:12;;;;;;;25.92;21.15;;;9.50;50.30;;;;;;5055428;28;20225;-66
2022/03/23 03:38:42;;;;;;;25.75;22.23;;;9.50;50.30;;;;;;5055621;28;20225;-65
2022/03/23 03:41:10;;;;;;;26.45;20.33;;;9.50;50.30;;;;;;5055233;28;20307;-65
2022/03/23 03:43:37;;;;;;;23.98;20.25;;;9.50;50.30;;;;;;5042422;28;20216;-68
2022/03/23 03:46:06;;;;;;;23.05;19.00;;;9.40;50.30;;;;;;5055449;28;20217;-65
2022/03/23 03:48:33;;;;;;;22.27;19.98;;;9.40;50.30;;;;;;5055410;28;20398;-65
2022/03/23 03:51:00;;;;;;;24.85;19.85;;;9.40;50.30;;;;;;5055659;28;20248;-65
2022/03/23 03:53:27;;;;;;;23.85;20.35;;;9.40;50.30;;;;;;5054609;28;20583;-66
2022/03/23 03:55:54;;;;;;;21.67;19.23;;;9.40;50.40;;;;;;5054082;28;20687;-65
2022/03/23 03:58:21;;;;;;;23.70;18.75;;;9.30;50.30;;;;;;5053461;28;20216;-66
2022/03/23 04:00:47;;;;;;;22.48;18.27;;;9.30;50.40;;;;;;5053591;28;20221;-67
2022/03/23 04:03:20;;;;;;;24.00;18.98;;;9.30;50.40;;;;;;5053271;28;20231;-66
2022/03/23 04:05:47;;;;;;;22.83;19.42;;;9.30;50.50;;;;;;5053905;28;20225;-66
2022/03/23 04:08:14;;;;;;;21.08;18.95;;;9.30;50.50;;;;;;5053056;28;20225;-66
2022/03/23 04:10:40;;;;;;;22.02;18.42;;;9.30;50.70;;;;;;5054524;28;20224;-65
2022/03/23 04:13:08;;;;;;;20.60;18.38;;;9.30;50.70;;;;;;5055395;28;20324;-65
2022/03/23 04:15:35;;;;;;;21.88;18.20;;;9.20;50.70;;;;;;5054740;28;20228;-65
2022/03/23 04:18:02;;;;;;;22.52;17.75;;;9.20;50.80;;;;;;5055127;28;20224;-65
2022/03/23 04:20:31;;;;;;;23.20;19.40;;;9.20;50.80;;;;;;5054596;28;20229;-66
2022/03/23 04:22:58;;;;;;;20.25;17.35;;;9.20;50.70;;;;;;5051355;28;20218;-66
2022/03/23 04:25:25;;;;;;;24.88;19.05;;;9.20;50.70;;;;;;5034160;28;20236;-66
2022/03/23 04:27:53;;;;;;;21.17;18.25;;;9.20;50.80;;;;;;5055124;28;20224;-66
2022/03/23 04:30:22;;;;;;;24.60;18.40;;;9.10;50.80;;;;;;5051599;28;20221;-66
2022/03/23 04:32:51;;;;;;;21.75;19.13;;;9.10;50.90;;;;;;5035113;28;20221;-66
2022/03/23 04:35:19;;;;;;;25.05;19.33;;;9.10;50.90;;;;;;5034519;28;20218;-67
2022/03/23 04:37:47;;;;;;;22.38;19.30;;;9.00;50.90;;;;;;5034835;28;20225;-66
2022/03/23 04:40:15;;;;;;;22.85;19.38;;;9.00;51.00;;;;;;5034453;28;20232;-67
2022/03/23 04:42:43;;;;;;;22.00;19.08;;;9.00;51.10;;;;;;5034957;28;20555;-65
2022/03/23 04:45:11;;;;;;;20.85;17.92;;;8.90;51.10;;;;;;5034922;28;20294;-65
2022/03/23 04:47:38;;;;;;;21.35;18.05;;;8.90;51.10;;;;;;5034396;28;20221;-65
2022/03/23 04:50:13;;;;;;;24.42;19.70;;;8.90;51.20;;;;;;5034665;28;20226;-65
2022/03/23 04:52:41;;;;;;;22.00;18.80;;;8.90;51.30;;;;;;5041201;28;20987;-66
2022/03/23 04:55:11;;;;;;;21.98;18.25;;;8.90;51.50;;;;;;5054444;28;20224;-66
2022/03/23 04:57:38;;;;;;;22.92;19.27;;;8.90;52.10;;;;;;5054185;28;20282;-66
2022/03/23 05:00:10;;;;;;;24.67;18.35;;;8.80;51.50;;;;;;5054540;28;20220;-66
2022/03/23 05:02:38;;;;;;;22.75;20.27;;;8.80;51.50;;;;;;5053739;28;20224;-66
2022/03/23 05:05:05;;;;;;;26.60;19.15;;;8.80;51.60;;;;;;5054363;28;20216;-65
2022/03/23 05:07:32;;;;;;;23.08;20.55;;;8.70;51.60;;;;;;5053759;28;20229;-65
2022/03/23 05:09:59;;;;;;;27.80;20.10;;;8.70;51.50;;;;;;5054175;28;20223;-66
2022/03/23 05:12:27;;;;;;;21.95;18.10;;;8.70;51.30;;;;;;5053700;28;20245;-66
2022/03/23 05:14:54;;;;;;;22.52;19.40;;;8.70;51.40;;;;;;5053859;28;20216;-66
2022/03/23 05:17:20;;;;;;;26.45;21.30;;;8.60;51.30;;;;;;5053659;28;20221;-65
2022/03/23 05:19:47;;;;;;;31.30;21.77;;;8.70;51.40;;;;;;5054123;28;20224;-66
2022/03/23 05:22:15;;;;;;;22.58;18.83;;;8.70;51.60;;;;;;5053613;28;20570;-66
2022/03/23 05:24:42;;;;;;;27.80;21.00;;;8.70;51.80;;;;;;5053723;28;21307;-66
2022/03/23 05:27:09;;;;;;;21.50;19.23;;;8.70;51.70;;;;;;5053839;28;20224;-66
2022/03/23 05:29:37;;;;;;;22.65;18.65;;;8.70;51.80;;;;;;5053406;28;20740;-66
2022/03/23 05:32:06;;;;;;;21.48;18.48;;;8.70;51.70;;;;;;5053718;28;20225;-66
2022/03/23 05:34:33;;;;;;;24.52;19.13;;;8.70;51.90;;;;;;5053602;28;20283;-66
2022/03/23 05:37:00;;;;;;;23.80;19.77;;;8.70;51.90;;;;;;5053632;28;20272;-65
2022/03/23 05:39:26;;;;;;;26.85;20.02;;;8.70;51.90;;;;;;5053188;28;20743;-65
2022/03/23 05:42:03;;;;;;;25.30;19.85;;;8.70;52.00;;;;;;5053642;28;20228;-67
2022/03/23 05:44:30;;;;;;;24.05;21.02;;;8.70;52.00;;;;;;5053255;28;20248;-66
2022/03/23 05:46:58;;;;;;;26.33;20.27;;;8.80;52.10;;;;;;5053664;28;20560;-65
2022/03/23 05:49:25;;;;;;;22.63;19.95;;;8.80;52.10;;;;;;5053044;28;20233;-66
2022/03/23 05:51:52;;;;;;;26.20;22.00;;;8.80;52.20;;;;;;5053257;28;20537;-66
2022/03/23 05:54:19;;;;;;;24.25;21.80;;;8.90;52.30;;;;;;5053144;28;20217;-65
2022/03/23 05:56:49;;;;;;;23.98;20.52;;;8.90;52.10;;;;;;5053295;28;20227;-66
2022/03/23 05:59:16;;;;;;;24.33;18.52;;;8.90;51.90;;;;;;5053048;28;20223;-66
2022/03/23 06:01:43;;;;;;;25.60;20.88;;;9.00;52.00;;;;;;5052643;28;20234;-66
2022/03/23 06:04:12;;;;;;;20.55;18.35;;;9.00;51.90;;;;;;5053243;28;20220;-65
2022/03/23 06:06:38;;;;;;;22.73;19.65;;;9.10;51.80;;;;;;5052467;28;20231;-66
2022/03/23 06:09:06;;;;;;;24.02;18.80;;;9.10;51.50;;;;;;5052887;28;20225;-68
2022/03/23 06:11:33;;;;;;;26.30;20.38;;;9.10;51.50;;;;;;5052649;28;20625;-66
2022/03/23 06:14:00;;;;;;;21.05;18.60;;;9.20;51.50;;;;;;5052997;28;20220;-66
2022/03/23 06:16:27;;;;;;;27.85;20.77;;;9.20;51.50;;;;;;5052579;28;20217;-67
2022/03/23 06:18:53;;;;;;;30.85;21.83;;;9.30;51.70;;;;;;5052979;28;20224;-66
2022/03/23 06:21:22;;;;;;;30.90;24.38;;;9.30;51.50;;;;;;5052711;28;20233;-65
2022/03/23 06:23:48;;;;;;;27.75;22.95;;;9.40;51.70;;;;;;5052702;28;20239;-66
2022/03/23 06:26:15;;;;;;;29.95;21.60;;;9.40;51.90;;;;;;5052656;28;20326;-66
2022/03/23 06:28:43;;;;;;;24.40;21.52;;;9.50;51.90;;;;;;5052280;28;20697;-67
2022/03/23 06:31:10;;;;;;;25.33;20.17;;;9.60;51.90;;;;;;5052853;28;20220;-66
2022/03/23 06:33:37;;;;;;;22.15;19.65;;;9.60;51.70;;;;;;5052285;28;20221;-66
2022/03/23 06:36:04;;;;;;;25.83;21.58;;;9.60;51.60;;;;;;5052713;28;20235;-66
2022/03/23 06:38:33;;;;;;;25.45;20.05;;;9.70;51.50;;;;;;5052255;28;20303;-66
2022/03/23 06:41:00;;;;;;;24.20;20.00;;;9.80;51.40;;;;;;5052291;28;20687;-65
2022/03/23 06:43:27;;;;;;;23.70;21.17;;;9.80;51.40;;;;;;5052257;28;20229;-66
2022/03/23 06:45:55;;;;;;;27.42;21.92;;;9.90;51.90;;;;;;5052586;28;20233;-65
2022/03/23 06:48:22;;;;;;;22.08;19.52;;;9.90;51.50;;;;;;5052193;28;20228;-66
2022/03/23 06:50:49;;;;;;;25.77;20.10;;;10.00;51.10;;;;;;5052145;28;20244;-66
2022/03/23 06:53:16;;;;;;;26.55;19.80;;;10.00;51.30;;;;;;5052730;28;20220;-66
2022/03/23 06:55:45;;;;;;;24.98;19.42;;;10.00;51.60;;;;;;5052119;28;20229;-66
2022/03/23 06:58:12;;;;;;;25.23;20.25;;;10.10;51.70;;;;;;5052610;28;20701;-66
2022/03/23 07:00:40;;;;;;;23.38;19.73;;;10.10;51.20;;;;;;5052052;28;20229;-66
2022/03/23 07:03:08;;;;;;;25.30;20.45;;;10.20;51.50;;;;;;5052237;28;20224;-66
2022/03/23 07:05:36;;;;;;;23.05;19.25;;;10.20;51.70;;;;;;5051784;28;20278;-66
2022/03/23 07:10:51;;;;;;;27.75;21.25;;;10.30;52.40;;;;;;5051784;28;20242;-67
2022/03/23 07:13:18;;;;;;;20.58;18.38;;;10.40;52.40;;;;;;5052128;28;20225;-66
2022/03/23 07:15:46;;;;;;;24.02;20.75;;;10.40;51.90;;;;;;5051860;28;20224;-66
2022/03/23 07:18:14;;;;;;;21.45;19.23;;;10.50;52.10;;;;;;5052299;28;20220;-66
2022/03/23 07:20:40;;;;;;;27.50;21.35;;;10.50;52.10;;;;;;5051646;28;20228;-66
2022/03/23 07:23:07;;;;;;;22.73;19.63;;;10.60;52.20;;;;;;5051925;28;20227;-66
2022/03/23 07:25:35;;;;;;;22.80;20.35;;;10.70;52.20;;;;;;5051788;28;20232;-66
2022/03/23 07:28:04;;;;;;;24.23;20.25;;;10.70;52.10;;;;;;5051994;28;20221;-66
2022/03/23 07:30:33;;;;;;;27.45;21.55;;;10.80;52.90;;;;;;5051714;28;20312;-66
2022/03/23 07:33:00;;;;;;;26.63;20.95;;;10.80;51.60;;;;;;5052444;28;20632;-66
2022/03/23 07:35:28;;;;;;;23.05;19.95;;;10.90;51.60;;;;;;5052135;28;20248;-65
2022/03/23 07:37:54;;;;;;;22.88;20.50;;;11.00;51.70;;;;;;5051920;28;20248;-66
2022/03/23 07:40:21;;;;;;;23.50;20.17;;;11.00;51.80;;;;;;5052046;28;20217;-65
2022/03/23 07:42:48;;;;;;;25.70;19.20;;;11.10;51.70;;;;;;5051645;28;20235;-65
2022/03/23 07:45:16;;;;;;;23.33;19.65;;;11.20;51.80;;;;;;5052222;28;20221;-66
2022/03/23 07:47:43;;;;;;;22.00;19.40;;;11.20;50.20;;;;;;5051716;28;20225;-66
2022/03/23 07:50:11;;;;;;;24.33;19.52;;;11.30;49.60;;;;;;5052146;28;20309;-66
2022/03/23 07:52:37;;;;;;;25.50;18.77;;;11.40;50.00;;;;;;5051553;28;20225;-66
2022/03/23 07:55:05;;;;;;;30.38;21.23;;;11.50;48.90;;;;;;5052033;28;20686;-66
2022/03/23 07:57:32;;;;;;;23.05;19.00;;;11.50;48.30;;;;;;5051735;28;20224;-66
2022/03/23 07:59:58;;;;;;;29.20;19.65;;;11.60;47.80;;;;;;5053679;28;20231;-66
2022/03/23 08:02:27;;;;;;;22.30;19.15;;;11.70;47.80;;;;;;5055268;28;20233;-66
2022/03/23 08:04:54;;;;;;;27.33;19.90;;;11.80;47.50;;;;;;5055123;28;20242;-66
2022/03/23 08:07:22;;;;;;;22.58;19.15;;;11.90;47.50;;;;;;5055438;28;20274;-65
2022/03/23 08:09:48;;;;;;;26.73;22.20;;;12.00;47.00;;;;;;5055062;28;20695;-65
2022/03/23 08:12:17;;;;;;;21.88;19.55;;;12.10;47.60;;;;;;5055179;28;20290;-65
2022/03/23 08:14:44;;;;;;;23.00;19.75;;;12.10;47.70;;;;;;5055013;28;20578;-66
2022/03/23 08:17:11;;;;;;;27.52;21.35;;;12.20;46.90;;;;;;5055020;28;20221;-66
2022/03/23 08:19:40;;;;;;;21.20;18.95;;;12.20;47.00;;;;;;5054599;28;20224;-66
2022/03/23 08:22:06;;;;;;;23.25;20.85;;;12.30;46.60;;;;;;5054930;28;20244;-66
2022/03/23 08:24:34;;;;;;;23.15;20.60;;;12.40;46.50;;;;;;5054815;28;20225;-66
2022/03/23 08:27:00;;;;;;;21.10;18.83;;;12.40;46.50;;;;;;5054899;28;20224;-66
2022/03/23 08:29:27;;;;;;;24.42;21.00;;;12.50;46.20;;;;;;5055082;28;20232;-65
2022/03/23 08:31:55;;;;;;;22.00;19.70;;;12.60;46.60;;;;;;5054254;28;20224;-66
2022/03/23 08:34:21;;;;;;;19.98;17.90;;;12.70;46.90;;;;;;5054952;28;20686;-65
2022/03/23 08:36:50;;;;;;;23.02;19.88;;;12.70;47.00;;;;;;5054397;28;20220;-65
2022/03/23 08:39:16;;;;;;;22.48;20.10;;;12.80;47.10;;;;;;5054785;28;20220;-66
2022/03/23 08:41:43;;;;;;;22.80;19.65;;;12.80;46.00;;;;;;5053823;28;20224;-65
2022/03/23 08:44:10;;;;;;;23.58;20.80;;;12.90;46.10;;;;;;5054671;28;20271;-65
2022/03/23 08:46:37;;;;;;;34.08;27.15;;;13.00;46.60;;;;;;5054375;28;20229;-65
2022/03/23 08:49:04;;;;;;;28.08;24.55;;;13.00;47.40;;;;;;5054552;28;20216;-66
2022/03/23 08:51:31;;;;;;;26.92;24.02;;;13.10;47.40;;;;;;5054554;28;20244;-65
2022/03/23 08:53:59;;;;;;;23.13;19.25;;;13.10;46.90;;;;;;5054035;28;20213;-65
2022/03/23 08:56:26;;;;;;;20.20;18.20;;;13.20;46.10;;;;;;5054581;28;20239;-65
2022/03/23 08:58:53;;;;;;;23.85;20.55;;;13.30;45.80;;;;;;5053998;28;20670;-65
2022/03/23 09:01:20;;;;;;;25.38;20.27;;;13.40;46.00;;;;;;5054206;28;20325;-65
2022/03/23 09:03:47;;;;;;;20.98;17.77;;;13.40;46.30;;;;;;5053949;28;20244;-66
2022/03/23 09:06:14;;;;;;;19.65;17.63;;;13.50;46.30;;;;;;5054091;28;20244;-66
2022/03/23 09:08:40;;;;;;;19.40;17.50;;;13.50;46.30;;;;;;5053886;28;20229;-66
2022/03/23 09:11:09;;;;;;;19.60;17.27;;;13.60;46.20;;;;;;5053920;28;20224;-66
2022/03/23 09:13:36;;;;;;;22.98;19.85;;;13.60;46.00;;;;;;5054035;28;20220;-66
2022/03/23 09:16:03;;;;;;;23.17;20.73;;;13.70;46.10;;;;;;5054019;28;20291;-65
2022/03/23 09:18:30;;;;;;;24.80;19.70;;;13.70;46.40;;;;;;5054256;28;20235;-66
2022/03/23 09:20:57;;;;;;;25.60;20.23;;;13.80;46.40;;;;;;5053364;28;20255;-65
2022/03/23 09:23:24;;;;;;;21.05;18.95;;;13.80;46.40;;;;;;5053563;28;20252;-66
2022/03/23 09:25:52;;;;;;;26.63;22.67;;;13.90;46.40;;;;;;5053463;28;20558;-66
2022/03/23 09:28:20;;;;;;;24.05;21.55;;;13.90;46.40;;;;;;5054070;28;20563;-66
2022/03/23 09:30:48;;;;;;;24.60;21.30;;;13.90;46.10;;;;;;5053269;28;20235;-66
2022/03/23 09:33:15;;;;;;;24.93;21.20;;;14.10;45.90;;;;;;5053487;28;21106;-66
2022/03/23 09:35:42;;;;;;;24.23;21.83;;;14.10;43.60;;;;;;5053420;28;20471;-66
2022/03/23 09:38:09;;;;;;;21.57;19.20;;;14.20;44.10;;;;;;5053668;28;20220;-66
2022/03/23 09:40:36;;;;;;;20.33;18.33;;;14.30;44.40;;;;;;5053599;28;20471;-66
2022/03/23 09:43:05;;;;;;;21.97;19.83;;;14.40;44.40;;;;;;5053151;28;20229;-66
2022/03/23 09:45:46;;;;;;;23.70;20.87;;;14.50;43.70;;;;;;5053596;28;20840;-66
2022/03/23 09:48:14;;;;;;;25.07;21.87;;;14.60;43.40;;;;;;5053242;28;21103;-66
2022/03/23 09:50:46;;;;;;;22.87;18.70;;;14.60;43.80;;;;;;5053371;28;20463;-66
2022/03/23 09:53:13;;;;;;;25.73;21.27;;;14.60;42.70;;;;;;5052708;28;20463;-65
2022/03/23 09:55:42;;;;;;;22.13;19.00;;;14.70;42.30;;;;;;5053179;28;20459;-66
2022/03/23 09:58:09;;;;;;;19.77;17.80;;;14.80;41.90;;;;;;5052610;28;20474;-65
2022/03/23 10:00:38;;;;;;;18.53;16.63;;;14.90;42.30;;;;;;5052929;28;20467;-66
2022/03/23 10:03:58;;;;;;;19.23;17.27;;;15.00;42.70;;;;;;5053060;28;20505;-66
2022/03/23 10:06:55;;;;;;;19.97;16.47;;;15.10;42.80;;;;;;5053455;28;20455;-65
2022/03/23 10:09:55;;;;;;;20.67;18.67;;;15.20;43.00;;;;;;5053233;28;20555;-65
2022/03/23 10:13:45;;;;;;;26.17;20.50;;;15.30;42.40;;;;;;5052647;28;20467;-66
2022/03/23 10:17:09;;;;;;;20.47;18.33;;;15.40;41.50;;;;;;5052841;28;20501;-66
2022/03/23 10:19:43;;;;;;;20.90;18.80;;;15.50;41.30;;;;;;5052856;28;20944;-66
2022/03/23 10:22:11;;;;;;;22.30;20.00;;;15.50;41.50;;;;;;5051824;28;20971;-66
2022/03/23 10:24:38;;;;;;;23.00;20.00;;;15.60;41.10;;;;;;5052480;28;20478;-66
2022/03/23 10:27:11;;;;;;;20.33;18.20;;;15.70;40.70;;;;;;5052859;28;20478;-66
2022/03/23 10:29:43;;;;;;;20.23;18.10;;;15.70;40.50;;;;;;5052156;28;20529;-66
2022/03/23 10:32:12;;;;;;;22.43;20.03;;;15.80;40.90;;;;;;5052666;28;20467;-66
2022/03/23 10:34:42;;;;;;;24.93;21.07;;;15.90;40.60;;;;;;5052385;28;20467;-66
2022/03/23 10:37:15;;;;;;;24.17;19.23;;;15.90;40.70;;;;;;5052521;28;20974;-65
2022/03/23 10:39:46;;;;;;;22.87;20.40;;;16.00;40.80;;;;;;5052279;28;20756;-66
2022/03/23 10:42:16;;;;;;;21.63;17.80;;;16.00;41.10;;;;;;5052765;28;20802;-65
2022/03/23 10:44:44;;;;;;;22.47;20.00;;;16.10;41.20;;;;;;5052063;28;20468;-65
2022/03/23 10:47:27;;;;;;;20.83;18.63;;;16.20;41.10;;;;;;5052525;28;20463;-65
2022/03/23 10:49:54;;;;;;;19.73;17.63;;;16.20;40.90;;;;;;5052200;28;26062;-65
2022/03/23 10:52:22;;;;;;;24.00;18.50;;;16.30;40.90;;;;;;5052426;28;20468;-67
2022/03/23 10:54:57;;;;;;;23.20;18.97;;;16.30;40.50;;;;;;5052294;28;20491;-66
2022/03/23 10:57:57;;;;;;;20.57;17.60;;;16.40;40.10;;;;;;5052464;28;20495;-66
2022/03/23 11:00:30;;;;;;;19.20;17.30;;;16.50;41.20;;;;;;5052542;28;20779;-65
2022/03/23 11:03:00;;;;;;;17.57;15.87;;;16.50;41.10;;;;;;5052332;28;20967;-65
2022/03/23 11:05:33;;;;;;;19.00;17.00;;;16.60;41.20;;;;;;5052123;28;20472;-66
2022/03/23 11:08:09;;;;;;;23.80;18.03;;;16.60;41.60;;;;;;5051896;28;20479;-66
2022/03/23 11:16:10;;;;;;;19.73;17.77;;;16.80;40.80;;;;;;5052570;28;20602;-66
2022/03/23 11:18:40;;;;;;;20.50;18.30;;;16.80;40.10;;;;;;5051824;28;20808;-66
2022/03/23 11:21:08;;;;;;;20.83;18.73;;;16.90;40.00;;;;;;5052231;28;20476;-66
2022/03/23 11:23:36;;;;;;;20.20;18.10;;;16.90;39.90;;;;;;5051548;28;21126;-66
2022/03/23 11:26:05;;;;;;;21.07;19.07;;;17.00;40.10;;;;;;5052123;28;20954;-66
2022/03/23 11:28:35;;;;;;;19.03;17.13;;;17.10;40.30;;;;;;5051886;28;20876;-66
2022/03/23 11:31:05;;;;;;;17.77;16.00;;;17.10;40.20;;;;;;5052359;28;20469;-67
2022/03/23 11:33:34;;;;;;;20.63;18.83;;;17.10;40.40;;;;;;5052455;28;20466;-66
2022/03/23 11:36:03;;;;;;;21.90;19.63;;;17.10;40.90;;;;;;5055977;28;20565;-66
2022/03/23 11:38:30;;;;;;;22.03;19.27;;;17.10;41.00;;;;;;5055591;28;20785;-65
2022/03/23 11:40:58;;;;;;;21.80;19.70;;;17.10;41.60;;;;;;5056019;28;20493;-66
2022/03/23 11:43:29;;;;;;;21.77;19.47;;;17.20;40.20;;;;;;5055332;28;20481;-65
2022/03/23 11:45:58;;;;;;;19.70;17.80;;;17.20;40.00;;;;;;5055932;28;20484;-66
2022/03/23 11:48:37;;;;;;;18.57;16.77;;;17.30;39.80;;;;;;5055315;28;20476;-66
2022/03/23 11:51:17;;;;;;;19.60;17.60;;;17.30;39.80;;;;;;5055908;28;20807;-66
2022/03/23 11:53:59;;;;;;;16.93;15.23;;;17.40;39.70;;;;;;5055354;28;20451;-66
2022/03/23 11:56:32;;;;;;;18.47;16.30;;;17.40;39.80;;;;;;5055144;28;20465;-67
2022/03/23 11:59:19;;;;;;;17.73;16.13;;;17.50;39.90;;;;;;5055587;28;20481;-66
2022/03/23 12:01:46;;;;;;;19.50;17.30;;;17.50;39.70;;;;;;5055329;28;20962;-66
2022/03/23 12:04:21;;;;;;;17.90;16.10;;;17.50;39.60;;;;;;5055667;28;20884;-66
2022/03/23 12:06:58;;;;;;;17.90;16.23;;;17.50;39.20;;;;;;5055149;28;21418;-66
2022/03/23 12:09:32;;;;;;;15.90;14.30;;;17.60;39.10;;;;;;5054877;28;20531;-66
2022/03/23 12:11:59;;;;;;;19.67;17.57;;;17.60;38.80;;;;;;5055244;28;20459;-66
2022/03/23 12:14:28;;;;;;;19.67;17.57;;;17.60;38.40;;;;;;5055272;28;20463;-65
2022/03/23 12:17:09;;;;;;;19.53;17.43;;;17.70;38.10;;;;;;5055211;28;20487;-66
2022/03/23 12:19:58;;;;;;;21.10;18.87;;;17.70;37.30;;;;;;5054617;28;20485;-66
2022/03/23 12:23:00;;;;;;;18.80;16.90;;;17.70;37.40;;;;;;5054665;28;20547;-67
2022/03/23 12:25:35;;;;;;;17.80;16.20;;;17.80;37.30;;;;;;5054636;28;20465;-65
2022/03/23 12:28:17;;;;;;;19.73;17.83;;;17.80;37.60;;;;;;5055187;28;20476;-66
2022/03/23 12:31:01;;;;;;;19.90;17.90;;;17.80;37.50;;;;;;5054585;28;20466;-66
2022/03/23 12:33:30;;;;;;;18.87;17.07;;;17.80;38.20;;;;;;5054444;28;20469;-67
2022/03/23 12:36:00;;;;;;;18.50;16.60;;;17.90;38.60;;;;;;5055185;28;20484;-66
2022/03/23 12:38:29;;;;;;;17.93;16.23;;;17.90;39.10;;;;;;5054725;28;20552;-67
2022/03/23 12:40:57;;;;;;;20.93;18.77;;;17.90;39.20;;;;;;5054767;28;20476;-66
2022/03/23 12:43:35;;;;;;;20.60;18.60;;;17.90;38.70;;;;;;5054838;28;20474;-67
2022/03/23 12:46:02;;;;;;;22.50;20.10;;;18.00;38.30;;;;;;5054567;28;20462;-65
2022/03/23 12:59:37;;;;;;;20.57;18.47;;;18.20;38.30;;;;;;5054642;28;20468;-66
2022/03/23 13:02:31;;;;;;;22.87;20.40;;;18.20;38.20;;;;;;5053780;28;20474;-66
2022/03/23 13:04:59;;;;;;;20.00;18.20;;;18.20;38.30;;;;;;5053821;28;20474;-66
2022/03/23 13:07:42;;;;;;;19.97;18.07;;;18.20;38.70;;;;;;5054282;28;20518;-66
2022/03/23 13:10:12;;;;;;;22.20;20.10;;;18.20;38.40;;;;;;5053900;28;20539;-66
2022/03/23 13:12:40;;;;;;;23.43;21.10;;;18.20;38.50;;;;;;5054158;28;20476;-67